createdAt,value
2023-03-12T00:23:44.601Z,100034.00
2023-03-12T00:29:08.308Z,100042.00
2023-03-12T00:34:31.613Z,100041.00
2023-03-12T00:39:56.266Z,100043.00
2023-03-12T00:45:19.344Z,100044.00
2023-03-12T00:50:42.538Z,100040.00
2023-03-12T00:56:08.229Z,100047.00
2023-03-12T01:01:31.281Z,100038.00
2023-03-12T01:06:55.842Z,100010.00
2023-03-12T01:12:20.681Z,100029.00
2023-03-12T01:17:44.088Z,100032.00
2023-03-12T01:23:07.822Z,100035.00
2023-03-12T01:28:32.343Z,100029.00
2023-03-12T01:33:55.695Z,100031.00
2023-03-12T01:39:19.087Z,100023.00
2023-03-12T01:44:58.586Z,100015.00
2023-03-12T01:50:22.154Z,100034.00
2023-03-12T01:55:45.355Z,100038.00
2023-03-12T02:01:10.151Z,100036.00
2023-03-12T02:06:41.273Z,100038.00
2023-03-12T02:12:05.151Z,100048.00
2023-03-12T02:17:32.159Z,100049.00
2023-03-12T02:23:05.827Z,100056.00
2023-03-12T02:28:34.225Z,100077.00
2023-03-12T02:33:59.986Z,100080.00
2023-03-12T02:39:23.053Z,100102.00
2023-03-12T02:44:48.058Z,100100.00
2023-03-12T02:50:12.422Z,100103.00
2023-03-12T02:55:36.065Z,100087.00
2023-03-12T03:01:01.096Z,100098.00
2023-03-12T03:06:24.876Z,100106.00
2023-03-12T03:11:48.279Z,100113.00
2023-03-12T03:17:13.206Z,100118.00
2023-03-12T03:22:36.861Z,100121.00
2023-03-12T03:28:00.136Z,100123.00
2023-03-12T03:33:25.301Z,100126.00
2023-03-12T03:38:48.875Z,100129.00
2023-03-12T03:44:13.739Z,100136.00
2023-03-12T03:49:38.923Z,100157.00
2023-03-12T03:55:02.333Z,100158.00
2023-03-12T04:00:27.741Z,100166.00
2023-03-12T04:05:58.760Z,100165.00
2023-03-12T04:11:23.144Z,100162.00
2023-03-12T04:16:46.553Z,100176.00
2023-03-12T04:22:11.334Z,100177.00
2023-03-12T04:27:35.716Z,100181.00
2023-03-12T04:32:59.085Z,100184.00
2023-03-12T04:38:26.396Z,100189.00
2023-03-12T04:43:52.439Z,100192.00
2023-03-12T04:49:16.804Z,100201.00
2023-03-12T04:54:41.488Z,100208.00
2023-03-12T05:00:06.970Z,100211.00
2023-03-12T05:05:30.190Z,100226.00
2023-03-12T05:10:55.691Z,100231.00
2023-03-12T05:16:19.273Z,100239.00
2023-03-12T05:21:42.896Z,100246.00
2023-03-12T05:27:07.741Z,100258.00
2023-03-12T05:32:31.218Z,100255.00
2023-03-12T05:37:55.268Z,100270.00
2023-03-12T05:43:21.523Z,100265.00
2023-03-12T05:48:45.123Z,100279.00
2023-03-12T05:54:08.798Z,100286.00
2023-03-12T05:59:34.316Z,100290.00
2023-03-12T06:04:58.253Z,100301.00
2023-03-12T06:10:21.564Z,100312.00
2023-03-12T06:15:45.974Z,100314.00
2023-03-12T06:21:11.911Z,100333.00
2023-03-12T06:26:35.739Z,100349.00
2023-03-12T06:32:00.352Z,100346.00
2023-03-12T06:37:23.381Z,100358.00
2023-03-12T06:42:46.420Z,100351.00
2023-03-12T06:48:10.985Z,100357.00
2023-03-12T06:53:34.576Z,100350.00
2023-03-12T06:58:57.886Z,100354.00
2023-03-12T07:04:23.044Z,100361.00
2023-03-12T07:09:46.087Z,100387.00
2023-03-12T07:15:10.533Z,100390.00
2023-03-12T07:20:38.683Z,100394.00
2023-03-12T07:26:03.739Z,100395.00
2023-03-12T07:31:27.311Z,100413.00
2023-03-12T07:36:54.206Z,100424.00
2023-03-12T07:42:17.561Z,100407.00
2023-03-12T07:47:42.138Z,100409.00
2023-03-12T07:53:07.261Z,100409.00
2023-03-12T07:58:31.674Z,100415.00
2023-03-12T08:03:55.214Z,100402.00
2023-03-12T08:09:19.816Z,100429.00
2023-03-12T08:14:42.965Z,100432.00
2023-03-12T08:20:08.162Z,100442.00
2023-03-12T08:25:32.933Z,100440.00
2023-03-12T08:31:00.249Z,100431.00
2023-03-12T08:36:23.606Z,100438.00
2023-03-12T08:41:48.119Z,100447.00
2023-03-12T08:47:11.534Z,100455.00
2023-03-12T08:52:34.681Z,100463.00
2023-03-12T08:57:59.312Z,100455.00
2023-03-12T09:03:22.689Z,100473.00
2023-03-12T09:08:47.022Z,100471.00
2023-03-12T09:19:54.730Z,100493.00
2023-03-12T09:25:17.889Z,100501.00
2023-03-12T09:30:43.450Z,100491.00
2023-03-12T09:36:07.351Z,100514.00
2023-03-12T09:41:35.687Z,100507.00
2023-03-12T09:47:07.848Z,100511.00
2023-03-12T09:52:45.462Z,100519.00
2023-03-12T09:58:27.774Z,100522.00
2023-03-12T10:04:24.124Z,100527.00
2023-03-12T10:10:25.447Z,100530.00
2023-03-12T10:16:04.184Z,100533.00
2023-03-12T10:21:35.273Z,100549.00
2023-03-12T10:26:59.579Z,100557.00
2023-03-12T10:32:29.668Z,100546.00
2023-03-12T10:37:57.903Z,100571.00
2023-03-12T10:43:20.949Z,100559.00
2023-03-12T10:48:44.350Z,100569.00
2023-03-12T10:54:23.266Z,100562.00
2023-03-12T10:59:48.744Z,100566.00
2023-03-12T11:05:23.280Z,100573.00
2023-03-12T11:10:48.467Z,100586.00
2023-03-12T11:16:27.068Z,100577.00
2023-03-12T11:21:58.179Z,100602.00
2023-03-12T11:27:37.759Z,100609.00
2023-03-12T11:33:02.323Z,100605.00
2023-03-12T11:38:36.982Z,100618.00
2023-03-12T11:44:25.579Z,100612.00
2023-03-12T11:50:28.002Z,100618.00
2023-03-12T11:56:10.382Z,100620.00
2023-03-12T12:01:52.436Z,100622.00
2023-03-12T12:07:30.237Z,100640.00
2023-03-12T12:13:09.250Z,100633.00
2023-03-12T12:19:04.504Z,100637.00
2023-03-12T12:24:51.331Z,100633.00
2023-03-12T12:30:25.929Z,100638.00
2023-03-12T12:35:50.871Z,100638.00
2023-03-12T12:41:19.200Z,100623.00
2023-03-12T12:46:46.877Z,100633.00
2023-03-12T12:52:15.545Z,100623.00
2023-03-12T12:57:45.279Z,100626.00
2023-03-12T13:03:16.122Z,100638.00
2023-03-12T13:09:14.372Z,100638.00
2023-03-12T13:14:41.054Z,100642.00
2023-03-12T13:20:16.283Z,100643.00
2023-03-12T13:26:01.274Z,100657.00
2023-03-12T13:31:39.465Z,100662.00
2023-03-12T13:37:03.789Z,100675.00
2023-03-12T13:42:38.884Z,100657.00
2023-03-12T13:48:05.457Z,100665.00
2023-03-12T13:53:39.977Z,100669.00
2023-03-12T13:59:13.789Z,100673.00
2023-03-12T14:04:41.497Z,100667.00
2023-03-12T14:10:22.536Z,100667.00
2023-03-12T14:15:55.190Z,100673.00
2023-03-12T14:21:19.980Z,100676.00
2023-03-12T14:26:46.631Z,100683.00
2023-03-12T14:32:19.062Z,100688.00
2023-03-12T14:37:47.844Z,100687.00
2023-03-12T14:43:24.441Z,100694.00
2023-03-12T14:48:52.810Z,100694.00
2023-03-12T14:54:21.346Z,100698.00
2023-03-12T14:59:54.126Z,100700.00
2023-03-12T15:05:20.702Z,100689.00
2023-03-12T15:10:51.812Z,100695.00
2023-03-12T15:16:15.503Z,100689.00
2023-03-12T15:21:40.377Z,100680.00
2023-03-12T15:27:34.498Z,100691.00
2023-03-12T15:33:12.880Z,100688.00
2023-03-12T15:38:44.192Z,100697.00
2023-03-12T15:44:14.991Z,100714.00
2023-03-12T15:49:40.282Z,100700.00
2023-03-12T15:55:21.627Z,100704.00
2023-03-12T16:00:45.925Z,100704.00
2023-03-12T16:06:13.362Z,100704.00
2023-03-12T16:11:38.142Z,100684.00
2023-03-12T16:17:02.339Z,100694.00
2023-03-12T16:22:25.519Z,100698.00
2023-03-12T16:27:53.890Z,100695.00
2023-03-12T16:33:20.469Z,100703.00
2023-03-12T16:38:44.585Z,100705.00
2023-03-12T16:44:17.534Z,100702.00
2023-03-12T16:49:41.119Z,100698.00
2023-03-12T16:55:04.542Z,100696.00
2023-03-12T17:00:32.887Z,100704.00
2023-03-12T17:05:56.526Z,100713.00
2023-03-12T17:11:23.755Z,100723.00
2023-03-12T17:16:48.504Z,100721.00
2023-03-12T17:22:11.621Z,100735.00
2023-03-12T17:27:34.690Z,100729.00
2023-03-12T17:33:05.697Z,100714.00
2023-03-12T17:38:30.122Z,100709.00
2023-03-12T17:43:53.535Z,100693.00
2023-03-12T17:49:18.109Z,100698.00
2023-03-12T17:54:41.469Z,100697.00
2023-03-12T18:00:06.693Z,100677.00
2023-03-12T18:05:39.242Z,100696.00
2023-03-12T18:11:02.745Z,100713.00
2023-03-12T18:16:26.049Z,100724.00
2023-03-12T18:21:50.839Z,100733.00
2023-03-12T18:27:14.130Z,100735.00
2023-03-12T18:32:37.560Z,100744.00
2023-03-12T18:38:02.253Z,100746.00
2023-03-12T18:43:25.506Z,100762.00
2023-03-12T18:48:48.681Z,100751.00
2023-03-12T18:54:13.384Z,100745.00
2023-03-12T18:59:36.571Z,100745.00
2023-03-12T19:04:59.833Z,100737.00
2023-03-12T19:10:24.986Z,100749.00
2023-03-12T19:15:48.397Z,100768.00
2023-03-12T19:21:11.514Z,100769.00
2023-03-12T19:26:36.223Z,100763.00
2023-03-12T19:31:59.529Z,100762.00
2023-03-12T19:37:22.671Z,100741.00
2023-03-12T19:42:47.124Z,100754.00
2023-03-12T19:48:11.449Z,100736.00
2023-03-12T19:53:35.339Z,100728.00
2023-03-12T19:59:00.360Z,100719.00
2023-03-12T20:04:23.605Z,100716.00
2023-03-12T20:09:46.838Z,100701.00
2023-03-12T20:15:14.463Z,100699.00
2023-03-12T20:20:37.754Z,100705.00
2023-03-12T20:26:01.041Z,100711.00
2023-03-12T20:31:25.819Z,100706.00
2023-03-12T20:36:49.691Z,100712.00
2023-03-12T20:42:12.755Z,100716.00
2023-03-12T20:47:37.371Z,100719.00
2023-03-12T20:53:00.527Z,100716.00
2023-03-12T20:58:23.514Z,100716.00
2023-03-12T21:03:49.570Z,100708.00
2023-03-12T21:09:12.746Z,100696.00
2023-03-12T21:14:36.040Z,100691.00
2023-03-12T21:20:01.488Z,100683.00
2023-03-12T21:25:25.113Z,100677.00
2023-03-12T21:30:48.456Z,100668.00
2023-03-12T21:36:14.945Z,100664.00
2023-03-12T21:41:38.480Z,100668.00
2023-03-12T21:47:01.790Z,100655.00
2023-03-12T21:52:26.951Z,100644.00
2023-03-12T21:57:50.092Z,100640.00
2023-03-12T22:03:13.462Z,100623.00
2023-03-12T22:08:39.011Z,100619.00
2023-03-12T22:14:02.132Z,100614.00
2023-03-12T22:19:25.461Z,100625.00
2023-03-12T22:24:50.092Z,100609.00
2023-03-12T22:30:14.093Z,100615.00
2023-03-12T22:35:44.320Z,100603.00
2023-03-12T22:41:21.412Z,100598.00
2023-03-12T22:46:44.812Z,100601.00
2023-03-12T22:52:08.079Z,100604.00
2023-03-12T22:57:33.963Z,100610.00
2023-03-12T23:02:57.145Z,100602.00
2023-03-12T23:08:20.368Z,100605.00
2023-03-12T23:13:46.729Z,100599.00
2023-03-12T23:19:09.711Z,100604.00
2023-03-12T23:24:32.784Z,100603.00
2023-03-12T23:29:57.341Z,100599.00
2023-03-12T23:35:20.798Z,100590.00
2023-03-12T23:40:45.173Z,100572.00
2023-03-12T23:46:11.602Z,100562.00
2023-03-12T23:51:34.888Z,100549.00
2023-03-12T23:56:57.900Z,100520.00
